Aviation Digital Data Service (ADDS)

Output produced by METARs form (1725 UTC 21 September 2019)
found at http://aviationweather.gov/metar/data/
 
KGGG 211653Z 17007KT 10SM BKN027 31/23 A3012 RMK AO2 SLP193 T03060228
KGGG 211642Z 15010KT 10SM SCT027 BKN034 29/23 A3012 RMK AO2 T02940228
KGGG 211626Z 16010KT 10SM BKN025 29/23 A3013 RMK AO2 T02890228
KGGG 211435Z 2115/2212 15007KT P6SM SCT008 
     TEMPO 2115/2116 BKN008 
     FM211600 15009KT P6SM SCT023 
     FM211700 15010KT P6SM SCT040 
     FM220100 15007KT P6SM SKC